createdAt,value
2022-10-11T00:01:35.004Z,75.65
2022-10-11T00:04:04.497Z,62.60
2022-10-11T00:06:33.842Z,67.00
2022-10-11T00:09:03.226Z,57.43
2022-10-11T00:11:33.121Z,52.17
2022-10-11T00:14:02.532Z,46.65
2022-10-11T00:16:32.157Z,43.55
2022-10-11T00:19:01.469Z,37.17
2022-10-11T00:21:30.861Z,33.80
2022-10-11T00:24:00.179Z,36.25
2022-10-11T00:26:29.723Z,43.60
2022-10-11T00:28:58.977Z,65.35
2022-10-11T00:31:31.996Z,60.00
2022-10-11T00:34:04.462Z,41.50
2022-10-11T00:36:33.870Z,31.70
2022-10-11T00:39:03.205Z,48.17
2022-10-11T00:41:33.073Z,51.40
2022-10-11T00:44:22.282Z,48.53
2022-10-11T00:46:58.502Z,52.65
2022-10-11T00:49:48.563Z,49.47
2022-10-11T00:52:40.503Z,47.65
2022-10-11T00:55:18.128Z,41.97
2022-10-11T00:57:51.624Z,37.80
2022-10-11T01:00:22.078Z,29.75
2022-10-11T01:02:51.707Z,31.73
2022-10-11T01:05:30.438Z,35.08
2022-10-11T01:08:02.933Z,30.75
2022-10-11T01:10:32.638Z,30.05
2022-10-11T01:13:22.935Z,30.60
2022-10-11T01:18:52.465Z,31.25
2022-10-11T01:21:41.300Z,36.70
2022-10-11T01:24:42.584Z,36.92
2022-10-11T01:27:32.209Z,36.20
2022-10-11T01:30:23.245Z,34.60
2022-10-11T01:33:12.513Z,28.95
2022-10-11T01:36:14.236Z,31.00
2022-10-11T01:38:49.937Z,33.63
2022-10-11T01:41:32.898Z,32.53
2022-10-11T01:44:05.113Z,30.30
2022-10-11T01:46:36.858Z,33.90
2022-10-11T01:49:07.338Z,31.02
2022-10-11T01:51:48.946Z,32.55
2022-10-11T01:55:08.030Z,36.08
2022-10-11T01:57:54.683Z,39.00
2022-10-11T02:03:19.017Z,33.80
2022-10-11T02:06:11.165Z,36.35
2022-10-11T02:09:11.301Z,40.63
2022-10-11T02:14:19.615Z,41.00
2022-10-11T02:16:59.197Z,40.63
2022-10-11T02:19:31.939Z,37.58
2022-10-11T02:22:06.565Z,31.02
2022-10-11T02:24:40.684Z,27.25
2022-10-11T02:27:12.300Z,29.52
2022-10-11T02:29:47.264Z,36.55
2022-10-11T02:32:19.482Z,41.13
2022-10-11T02:34:55.481Z,30.27
2022-10-11T02:37:38.416Z,36.47
2022-10-11T02:40:22.260Z,39.67
2022-10-11T02:43:00.367Z,34.83
2022-10-11T02:45:43.199Z,33.90
2022-10-11T02:48:15.573Z,37.58
2022-10-11T02:50:45.416Z,27.65
2022-10-11T02:53:14.780Z,38.65
2022-10-11T02:55:44.106Z,27.15
2022-10-11T02:58:13.423Z,22.45
2022-10-11T03:00:43.529Z,40.85
2022-10-11T03:03:12.892Z,23.02
2022-10-11T03:05:43.031Z,30.25
2022-10-11T03:08:14.458Z,28.48
2022-10-11T03:10:44.291Z,32.70
2022-10-11T03:13:17.885Z,36.88
2022-10-11T03:16:07.177Z,36.88
2022-10-11T03:18:36.837Z,33.22
2022-10-11T03:21:06.249Z,37.78
2022-10-11T03:23:35.658Z,32.92
2022-10-11T03:26:05.538Z,33.97
2022-10-11T03:28:35.292Z,34.42
2022-10-11T03:31:04.840Z,35.58
2022-10-11T03:33:34.283Z,26.20
2022-10-11T03:36:04.083Z,36.10
2022-10-11T03:41:03.023Z,34.05
2022-10-11T03:43:32.923Z,28.15
2022-10-11T03:51:01.939Z,31.00
2022-10-11T03:53:31.254Z,29.25
2022-10-11T03:56:04.599Z,32.13
2022-10-11T03:58:37.054Z,34.63
2022-10-11T04:01:06.352Z,26.27
2022-10-11T04:03:35.966Z,31.63
2022-10-11T04:06:06.071Z,34.47
2022-10-11T04:08:35.918Z,41.13
2022-10-11T04:11:05.365Z,33.80
2022-10-11T04:13:37.109Z,33.75
2022-10-11T04:16:07.401Z,33.38
2022-10-11T04:18:36.984Z,41.22
2022-10-11T04:21:06.514Z,33.90
2022-10-11T04:23:36.393Z,43.92
2022-10-11T04:28:38.299Z,40.67
2022-10-11T04:31:09.515Z,38.22
2022-10-11T04:33:38.732Z,35.90
2022-10-11T04:36:08.553Z,42.88
2022-10-11T04:38:38.195Z,40.05
2022-10-11T04:41:12.367Z,37.55
2022-10-11T04:43:42.285Z,40.33
2022-10-11T04:46:12.439Z,36.80
2022-10-11T04:48:41.874Z,34.55
2022-10-11T04:51:11.445Z,32.90
2022-10-11T04:53:40.686Z,40.92
2022-10-11T04:56:13.354Z,54.42
2022-10-11T04:58:43.228Z,41.95
2022-10-11T05:03:41.970Z,33.67
2022-10-11T05:06:11.552Z,33.53
2022-10-11T05:11:15.667Z,40.65
2022-10-11T05:13:46.517Z,24.25
2022-10-11T05:16:18.331Z,23.05
2022-10-11T05:18:47.716Z,24.23
2022-10-11T05:21:21.508Z,24.17
2022-10-11T05:23:52.650Z,27.35
2022-10-11T05:26:22.827Z,22.40
2022-10-11T05:28:52.250Z,19.65
2022-10-11T05:31:22.039Z,17.58
2022-10-11T05:36:21.673Z,26.30
2022-10-11T05:38:51.025Z,22.17
2022-10-11T05:41:20.791Z,17.98
2022-10-11T05:46:19.180Z,21.88
2022-10-11T05:48:48.929Z,20.88
2022-10-11T05:53:47.374Z,19.35
2022-10-11T05:56:27.754Z,23.17
2022-10-11T05:59:02.181Z,20.80
2022-10-11T06:01:33.354Z,21.45
2022-10-11T06:04:02.981Z,22.55
2022-10-11T06:06:32.634Z,27.40
2022-10-11T06:09:02.379Z,32.78
2022-10-11T06:11:32.104Z,26.60
2022-10-11T06:16:30.811Z,26.48
2022-10-11T06:21:29.244Z,24.60
2022-10-11T06:24:01.573Z,20.98
2022-10-11T06:26:32.140Z,25.80
2022-10-11T06:29:01.756Z,31.30
2022-10-11T06:34:03.312Z,21.95
2022-10-11T06:41:33.785Z,19.58
2022-10-11T06:44:03.774Z,22.73
2022-10-11T06:46:35.119Z,29.80
2022-10-11T06:52:49.707Z,30.08
2022-10-11T06:55:19.241Z,16.58
2022-10-11T06:57:48.881Z,20.20
2022-10-11T07:02:49.477Z,19.17
2022-10-11T07:05:19.833Z,12.98
2022-10-11T07:07:49.409Z,15.27
2022-10-11T07:10:19.078Z,16.30
2022-10-11T07:12:48.884Z,10.57
2022-10-11T07:15:18.703Z,15.57
2022-10-11T07:17:48.489Z,12.55
2022-10-11T07:20:18.221Z,15.48
2022-10-11T07:25:16.674Z,21.50
2022-10-11T07:27:46.375Z,19.05
2022-10-11T07:32:45.688Z,20.73
2022-10-11T07:35:15.394Z,24.95
2022-10-11T07:40:14.107Z,20.92
2022-10-11T07:42:44.159Z,28.67
2022-10-11T07:45:14.124Z,31.30
2022-10-11T07:47:48.482Z,20.73
2022-10-11T07:50:18.486Z,24.10
2022-10-11T07:52:48.233Z,23.77
2022-10-11T07:55:18.280Z,21.80
2022-10-11T07:57:48.025Z,18.23
2022-10-11T08:00:17.987Z,21.83
2022-10-11T08:02:47.707Z,19.40
2022-10-11T08:05:17.922Z,24.80
2022-10-11T08:07:47.689Z,22.75
2022-10-11T08:10:17.469Z,29.75
2022-10-11T08:12:50.146Z,27.02
2022-10-11T08:15:20.551Z,29.70
2022-10-11T08:17:50.678Z,26.83
2022-10-11T08:20:20.547Z,32.92
2022-10-11T08:25:19.480Z,20.20
2022-10-11T08:27:49.368Z,22.98
2022-10-11T08:32:48.169Z,25.73
2022-10-11T08:35:18.391Z,21.35
2022-10-11T08:37:48.082Z,19.02
2022-10-11T08:40:20.834Z,23.05
2022-10-11T08:43:09.729Z,22.35
2022-10-11T08:45:56.756Z,21.45
2022-10-11T08:48:37.990Z,23.73
2022-10-11T08:51:32.337Z,18.88
2022-10-11T08:54:08.777Z,18.35
2022-10-11T08:56:41.571Z,18.35
2022-10-11T08:59:41.224Z,16.20
2022-10-11T09:03:06.463Z,19.58
2022-10-11T09:05:42.304Z,19.10
2022-10-11T09:08:40.503Z,15.95
2022-10-11T09:11:28.679Z,21.48
2022-10-11T09:14:15.183Z,16.15
2022-10-11T09:17:23.728Z,15.88
2022-10-11T09:20:23.431Z,15.30
2022-10-11T09:23:12.194Z,19.90
2022-10-11T09:25:57.047Z,15.13
2022-10-11T09:29:02.599Z,18.08
2022-10-11T09:31:33.641Z,19.92
2022-10-11T09:34:16.492Z,17.95
2022-10-11T09:37:06.621Z,18.65
2022-10-11T09:39:39.268Z,22.05
2022-10-11T09:42:11.747Z,17.15
2022-10-11T09:44:47.522Z,19.25
2022-10-11T09:47:27.208Z,18.38
2022-10-11T09:50:18.424Z,16.88
2022-10-11T09:53:06.715Z,18.80
2022-10-11T09:55:52.851Z,24.20
2022-10-11T09:58:33.586Z,19.23
2022-10-11T10:01:09.775Z,21.15
2022-10-11T10:03:42.560Z,22.80
2022-10-11T10:06:27.015Z,25.75
2022-10-11T10:08:57.659Z,34.33
2022-10-11T10:11:27.362Z,25.95
2022-10-11T10:13:58.716Z,33.22
2022-10-11T10:16:34.873Z,31.80
2022-10-11T10:19:20.034Z,27.73
2022-10-11T10:21:52.357Z,29.95
2022-10-11T10:24:40.238Z,24.10
2022-10-11T10:27:22.747Z,31.60
2022-10-11T10:30:22.563Z,24.23
2022-10-11T10:33:13.831Z,23.13
2022-10-11T10:35:51.004Z,19.17
2022-10-11T10:38:35.852Z,19.92
2022-10-11T10:41:13.179Z,18.98
2022-10-11T10:43:46.310Z,27.45
2022-10-11T10:46:47.459Z,31.05
2022-10-11T10:49:54.537Z,31.40
2022-10-11T10:52:57.877Z,28.20
2022-10-11T10:55:40.696Z,23.52
2022-10-11T10:58:38.061Z,26.40
2022-10-11T11:01:32.983Z,29.58
2022-10-11T11:04:35.765Z,20.98
2022-10-11T11:07:26.105Z,22.90
2022-10-11T11:10:09.429Z,20.77
2022-10-11T11:12:52.947Z,24.77
2022-10-11T11:15:38.327Z,19.92
2022-10-11T11:18:33.242Z,27.20
2022-10-11T11:21:41.644Z,28.65
2022-10-11T11:24:49.634Z,24.00
2022-10-11T11:27:43.646Z,25.33
2022-10-11T11:30:38.288Z,20.05
2022-10-11T11:33:30.253Z,25.13
2022-10-11T11:36:06.590Z,27.70
2022-10-11T11:38:46.251Z,28.33
2022-10-11T11:41:24.877Z,28.10
2022-10-11T11:44:13.782Z,29.45
2022-10-11T11:46:51.987Z,30.98
2022-10-11T11:49:31.170Z,28.60
2022-10-11T11:52:02.176Z,36.28
2022-10-11T11:54:52.900Z,32.22
2022-10-11T11:57:37.643Z,32.50
2022-10-11T12:00:17.546Z,33.15
2022-10-11T12:02:58.418Z,34.50
2022-10-11T12:05:32.567Z,35.50
2022-10-11T12:08:09.768Z,37.92
2022-10-11T12:11:02.732Z,44.60
2022-10-11T12:13:42.402Z,33.83
2022-10-11T12:16:16.478Z,31.05
2022-10-11T12:19:06.733Z,35.97
2022-10-11T12:21:42.127Z,39.20
2022-10-11T12:24:25.956Z,50.00
2022-10-11T12:27:07.025Z,34.38
2022-10-11T12:29:49.366Z,34.40
2022-10-11T12:32:52.748Z,36.40
2022-10-11T12:35:41.695Z,34.47
2022-10-11T12:38:31.399Z,35.47
2022-10-11T12:41:40.305Z,35.53
2022-10-11T12:44:26.072Z,34.38
2022-10-11T12:47:22.426Z,30.75
2022-10-11T12:50:12.348Z,35.13
2022-10-11T12:53:05.133Z,45.70
2022-10-11T12:56:06.557Z,36.55
2022-10-11T12:58:43.898Z,41.20
2022-10-11T13:01:19.312Z,42.72
2022-10-11T13:03:54.629Z,37.90
2022-10-11T13:06:29.696Z,33.42
2022-10-11T13:09:25.548Z,35.30
2022-10-11T13:12:03.127Z,33.10
2022-10-11T13:14:39.343Z,37.13
2022-10-11T13:17:27.189Z,29.20
2022-10-11T13:20:11.563Z,36.10
2022-10-11T13:22:42.572Z,39.45
2022-10-11T13:25:20.453Z,36.40
2022-10-11T13:27:52.202Z,35.50
2022-10-11T13:30:30.303Z,33.95
2022-10-11T13:33:03.749Z,33.25
2022-10-11T13:35:39.203Z,36.08
2022-10-11T13:38:11.375Z,39.15
2022-10-11T13:40:41.494Z,31.48
2022-10-11T13:43:11.444Z,37.78
2022-10-11T13:45:42.991Z,37.50
2022-10-11T13:48:17.851Z,36.50
2022-10-11T13:51:06.756Z,30.17
2022-10-11T13:53:36.943Z,22.67
2022-10-11T13:58:48.424Z,22.90
2022-10-11T14:01:47.847Z,25.58
2022-10-11T14:04:19.064Z,27.63
2022-10-11T14:06:59.780Z,30.08
2022-10-11T14:09:35.310Z,24.80
2022-10-11T14:12:39.783Z,26.00
2022-10-11T14:15:28.887Z,29.35
2022-10-11T14:17:59.236Z,27.47
2022-10-11T14:20:41.518Z,22.45
2022-10-11T14:23:11.381Z,28.42
2022-10-11T14:25:41.397Z,26.50
2022-10-11T14:30:44.742Z,24.83
2022-10-11T14:33:14.884Z,26.65
2022-10-11T14:35:45.549Z,23.92
2022-10-11T14:38:15.421Z,21.42
2022-10-11T14:40:46.434Z,24.02
2022-10-11T14:43:16.212Z,27.75
2022-10-11T14:45:46.293Z,28.45
2022-10-11T14:51:08.119Z,23.23
2022-10-11T14:53:40.987Z,32.20
2022-10-11T14:56:11.051Z,27.77
2022-10-11T14:58:40.935Z,27.35
2022-10-11T15:01:15.902Z,31.67
2022-10-11T15:03:45.756Z,29.45
2022-10-11T15:06:35.490Z,20.90
2022-10-11T15:09:07.378Z,17.20
2022-10-11T15:11:39.305Z,20.73
2022-10-11T15:14:09.438Z,18.67
2022-10-11T15:19:09.346Z,15.97
2022-10-11T15:21:39.194Z,17.45
2022-10-11T15:24:10.340Z,20.38
2022-10-11T15:26:40.579Z,17.77
2022-10-11T15:29:15.967Z,18.65
2022-10-11T15:31:52.775Z,14.02
2022-10-11T15:34:23.034Z,19.08
2022-10-11T15:36:52.891Z,16.85
2022-10-11T15:39:29.797Z,14.68
2022-10-11T15:42:01.420Z,15.27
2022-10-11T15:44:31.447Z,20.42
2022-10-11T15:47:01.160Z,22.80
2022-10-11T15:49:31.133Z,21.17
2022-10-11T15:52:01.825Z,21.52
2022-10-11T15:54:32.955Z,23.08
2022-10-11T15:57:03.061Z,18.58
2022-10-11T16:02:02.053Z,17.70
2022-10-11T16:04:32.002Z,17.95
2022-10-11T16:07:02.061Z,15.27
2022-10-11T16:12:01.847Z,20.85
2022-10-11T16:14:32.188Z,19.92
2022-10-11T16:17:02.750Z,19.75
2022-10-11T16:19:32.506Z,17.80
2022-10-11T16:22:02.364Z,17.60
2022-10-11T16:24:32.221Z,22.08
2022-10-11T16:27:03.204Z,17.63
2022-10-11T16:29:33.258Z,19.70
2022-10-11T16:34:32.223Z,19.33
2022-10-11T16:37:02.419Z,19.27
2022-10-11T16:39:32.399Z,16.55
2022-10-11T16:42:02.301Z,19.20
2022-10-11T16:44:33.999Z,17.73
2022-10-11T16:47:03.985Z,13.50
2022-10-11T16:49:34.530Z,15.35
2022-10-11T16:52:06.416Z,15.38
2022-10-11T16:54:38.961Z,14.07
2022-10-11T16:57:08.936Z,15.93
2022-10-11T16:59:40.068Z,17.45
2022-10-11T17:02:15.980Z,19.25
2022-10-11T17:04:46.702Z,16.00
2022-10-11T17:07:16.509Z,15.50
2022-10-11T17:09:50.658Z,12.45
2022-10-11T17:12:24.262Z,13.02
2022-10-11T17:14:54.213Z,10.25
2022-10-11T17:17:23.989Z,10.55
2022-10-11T17:19:55.337Z,8.93
2022-10-11T17:22:25.037Z,13.48
2022-10-11T17:24:55.146Z,8.57
2022-10-11T17:29:54.015Z,10.88
2022-10-11T17:32:23.906Z,11.77
2022-10-11T17:34:55.476Z,7.13
2022-10-11T17:37:26.166Z,8.32
2022-10-11T17:39:56.418Z,7.45
2022-10-11T17:42:27.229Z,9.07
2022-10-11T17:44:57.135Z,10.32
2022-10-11T17:47:27.651Z,12.45
2022-10-11T17:49:57.410Z,11.43
2022-10-11T17:52:28.749Z,7.55
2022-10-11T17:54:58.757Z,8.82
2022-10-11T17:57:28.410Z,6.40
2022-10-11T17:59:58.284Z,11.10
2022-10-11T18:02:27.909Z,11.05
2022-10-11T18:04:57.457Z,10.80
2022-10-11T18:07:26.919Z,7.78
2022-10-11T18:09:56.345Z,11.13
2022-10-11T18:12:25.636Z,8.48
2022-10-11T18:14:55.216Z,9.23
2022-10-11T18:17:24.520Z,9.02
2022-10-11T18:19:53.776Z,6.53
2022-10-11T18:22:23.195Z,8.18
2022-10-11T18:24:52.486Z,6.80
2022-10-11T18:27:21.827Z,13.38
2022-10-11T18:29:51.346Z,6.72
2022-10-11T18:32:21.494Z,8.23
2022-10-11T18:37:19.654Z,8.77
2022-10-11T18:39:49.106Z,9.63
2022-10-11T18:42:18.401Z,10.98
2022-10-11T18:44:47.756Z,8.37
2022-10-11T18:47:23.461Z,9.02
2022-10-11T18:49:55.674Z,7.07
2022-10-11T18:52:25.173Z,8.65
2022-10-11T18:54:54.448Z,9.02
2022-10-11T18:57:25.658Z,12.57
2022-10-11T18:59:55.100Z,12.85
2022-10-11T19:02:24.388Z,18.17
2022-10-11T19:04:54.363Z,9.77
2022-10-11T19:07:26.272Z,8.98
2022-10-11T19:09:55.540Z,9.40
2022-10-11T19:12:24.814Z,10.43
2022-10-11T19:14:56.380Z,8.10
2022-10-11T19:17:26.489Z,7.40
2022-10-11T19:19:56.317Z,9.25
2022-10-11T19:22:26.827Z,11.02
2022-10-11T19:24:57.214Z,9.30
2022-10-11T19:27:26.788Z,11.63
2022-10-11T19:29:56.051Z,10.93
2022-10-11T19:32:25.633Z,16.87
2022-10-11T19:34:55.319Z,9.73
2022-10-11T19:37:25.183Z,8.70
2022-10-11T19:39:55.621Z,6.95
2022-10-11T19:42:25.238Z,11.68
2022-10-11T19:44:54.696Z,11.38
2022-10-11T19:47:25.175Z,8.38
2022-10-11T19:49:54.553Z,7.50
2022-10-11T19:52:24.112Z,15.00
2022-10-11T19:54:57.555Z,13.32
2022-10-11T19:57:26.841Z,8.20
2022-10-11T19:59:56.121Z,10.13
2022-10-11T20:02:25.595Z,10.50
2022-10-11T20:04:54.879Z,16.73
2022-10-11T20:07:24.275Z,9.47
2022-10-11T20:09:53.733Z,11.05
2022-10-11T20:12:23.192Z,12.75
2022-10-11T20:14:52.609Z,9.23
2022-10-11T20:17:21.977Z,11.38
2022-10-11T20:19:51.525Z,10.95
2022-10-11T20:22:21.089Z,10.23
2022-10-11T20:24:50.845Z,9.52
2022-10-11T20:27:20.046Z,7.30
2022-10-11T20:29:50.388Z,11.07
2022-10-11T20:32:19.815Z,10.85
2022-10-11T20:34:49.143Z,11.02
2022-10-11T20:37:18.464Z,9.30
2022-10-11T20:39:47.950Z,10.98
2022-10-11T20:42:17.212Z,23.73
2022-10-11T20:44:46.643Z,10.93
2022-10-11T20:47:15.971Z,12.75
2022-10-11T20:49:45.271Z,12.17
2022-10-11T20:52:14.543Z,10.03
2022-10-11T20:54:43.989Z,13.77
2022-10-11T20:57:13.369Z,15.00
2022-10-11T20:59:42.653Z,14.32
2022-10-11T21:02:18.005Z,14.55
2022-10-11T21:04:48.203Z,12.82
2022-10-11T21:07:17.558Z,19.90
2022-10-11T21:09:46.969Z,17.02
2022-10-11T21:12:16.257Z,13.23
2022-10-11T21:14:45.797Z,13.23
2022-10-11T21:24:30.767Z,14.35
2022-10-11T21:27:01.071Z,13.73
2022-10-11T21:29:30.860Z,10.23
2022-10-11T21:32:00.668Z,9.80
2022-10-11T21:34:30.439Z,12.35
2022-10-11T21:37:00.257Z,14.07
2022-10-11T21:39:30.062Z,14.90
2022-10-11T21:42:00.048Z,15.40
2022-10-11T21:44:33.437Z,12.93
2022-10-11T21:47:07.646Z,12.88
2022-10-11T21:49:38.282Z,14.98
2022-10-11T21:52:08.382Z,14.98
2022-10-11T21:57:07.862Z,12.50
2022-10-11T21:59:37.684Z,11.57
2022-10-11T22:02:07.743Z,12.45
2022-10-11T22:07:06.467Z,14.57
2022-10-11T22:09:36.597Z,12.95
2022-10-11T22:14:35.393Z,16.23
2022-10-11T22:17:04.667Z,10.07
2022-10-11T22:19:33.926Z,15.57
2022-10-11T22:22:03.566Z,23.00
2022-10-11T22:24:33.186Z,16.52
2022-10-11T22:27:02.527Z,15.27
2022-10-11T22:29:34.364Z,13.13
2022-10-11T22:32:03.771Z,13.55
2022-10-11T22:34:35.039Z,10.93
2022-10-11T22:37:04.371Z,9.90
2022-10-11T22:39:33.562Z,11.35
2022-10-11T22:42:02.803Z,14.57
2022-10-11T22:44:32.064Z,10.33
2022-10-11T22:47:01.336Z,13.77
2022-10-11T22:49:30.698Z,10.63
2022-10-11T22:51:59.868Z,15.07
2022-10-11T22:54:29.108Z,12.40
2022-10-11T22:56:59.480Z,17.03
2022-10-11T22:59:28.793Z,18.20
2022-10-11T23:01:58.055Z,18.83
2022-10-11T23:04:27.433Z,14.47
2022-10-11T23:06:57.777Z,13.60
2022-10-11T23:09:30.434Z,20.23
2022-10-11T23:12:00.020Z,16.63
2022-10-11T23:14:29.286Z,19.35
2022-10-11T23:16:58.690Z,16.55
2022-10-11T23:19:27.982Z,14.73
2022-10-11T23:21:57.184Z,12.27
2022-10-11T23:24:26.594Z,14.45
2022-10-11T23:26:55.922Z,17.25
2022-10-11T23:29:25.156Z,12.73
2022-10-11T23:31:54.895Z,14.83
2022-10-11T23:34:24.234Z,13.30
2022-10-11T23:36:53.504Z,10.70
2022-10-11T23:39:22.890Z,39.17
2022-10-11T23:41:52.288Z,13.53
2022-10-11T23:44:21.788Z,14.50
2022-10-11T23:46:51.280Z,17.35
2022-10-11T23:49:20.587Z,11.18
2022-10-11T23:51:49.790Z,13.40
2022-10-11T23:54:19.163Z,12.02
2022-10-11T23:56:48.526Z,11.77
2022-10-11T23:59:17.816Z,19.38
